Time;durP1;ratioP1;P1;durP2;ratioP2;P2;SDS_P1;SDS_P2;PMS_P1;PMS_P2;Temp;Humidity;BMP_temperature;BMP_pressure;BME280_temperature;BME280_humidity;BME280_pressure;Samples;Min_cycle;Max_cycle;Signal;HPM_P1;HPM_P2
2022/01/14 00:02:18;;;;;;;108.32;46.05;;;;;;;;;;5089629;28;20038;-74
2022/01/14 00:04:45;;;;;;;102.03;45.60;;;;;;;;;;5102601;28;20038;-74
2022/01/14 00:07:11;;;;;;;124.50;50.35;;;;;;;;;;5100678;28;20395;-74
2022/01/14 00:09:38;;;;;;;152.73;60.15;;;;;;;;;;5096648;28;20035;-74
2022/01/14 00:12:10;;;;;;;135.27;52.58;;;;;;;;;;5090532;28;20442;-74
2022/01/14 00:17:03;;;;;;;116.90;50.63;;;;;;;;;;5092123;28;20039;-74
2022/01/14 00:19:29;;;;;;;192.70;72.70;;;;;;;;;;5104997;28;20089;-74
2022/01/14 00:21:55;;;;;;;212.40;79.35;;;;;;;;;;5110829;28;20043;-74
2022/01/14 00:32:22;;;;;;;65.78;31.73;;;;;;;;;;5109551;28;20072;-74
2022/01/14 00:34:48;;;;;;;61.38;30.38;;;;;;;;;;5110313;28;20062;-74
2022/01/14 00:37:15;;;;;;;56.15;32.17;;;;;;;;;;5108803;28;20043;-74
2022/01/14 00:39:41;;;;;;;63.30;34.20;;;;;;;;;;5101964;28;20082;-74
2022/01/14 00:42:08;;;;;;;58.90;32.83;;;;;;;;;;5103361;28;20385;-74
2022/01/14 00:44:34;;;;;;;56.90;32.97;;;;;;;;;;5090645;28;20063;-74
2022/01/14 00:47:02;;;;;;;57.70;29.98;;;;;;;;;;5099066;28;20066;-74
2022/01/14 00:49:28;;;;;;;60.15;32.28;;;;;;;;;;5110049;28;20482;-74
2022/01/14 00:51:54;;;;;;;56.67;29.90;;;;;;;;;;5109675;28;20775;-74
2022/01/14 00:54:20;;;;;;;63.80;34.92;;;;;;;;;;5110421;28;20062;-74
2022/01/14 00:57:00;;;;;;;69.97;37.08;;;;;;;;;;5095078;28;20148;-74
2022/01/14 00:59:26;;;;;;;69.82;36.80;;;;;;;;;;5093963;28;20061;-74
2022/01/14 01:01:55;;;;;;;69.78;36.13;;;;;;;;;;5103105;28;20032;-74
2022/01/14 01:04:22;;;;;;;58.95;32.53;;;;;;;;;;5110274;28;20023;-74
2022/01/14 01:06:49;;;;;;;60.58;28.67;;;;;;;;;;5091577;28;20031;-74
2022/01/14 01:09:16;;;;;;;53.95;29.27;;;;;;;;;;5110396;28;20031;-73
2022/01/14 01:11:50;;;;;;;52.22;25.85;;;;;;;;;;5109589;28;20106;-74
2022/01/14 01:14:21;;;;;;;55.08;28.23;;;;;;;;;;5101972;28;20092;-74
2022/01/14 01:16:47;;;;;;;57.70;27.03;;;;;;;;;;5093831;28;20039;-73
2022/01/14 01:19:13;;;;;;;52.55;26.73;;;;;;;;;;5109765;28;20611;-73
2022/01/14 01:21:39;;;;;;;67.63;32.83;;;;;;;;;;5102890;28;20032;-74
2022/01/14 01:24:07;;;;;;;61.83;34.03;;;;;;;;;;5105647;28;20039;-73
2022/01/14 01:26:38;;;;;;;61.05;31.63;;;;;;;;;;5109386;28;20102;-74
2022/01/14 01:29:42;;;;;;;66.80;34.55;;;;;;;;;;5102852;28;20032;-74
2022/01/14 01:31:55;;;;;;;55.20;30.75;;;;;;;;;;5086887;28;20032;-74
2022/01/14 01:34:23;;;;;;;52.92;27.98;;;;;;;;;;5084657;28;20059;-74
2022/01/14 01:36:50;;;;;;;55.33;27.27;;;;;;;;;;5082853;28;20051;-74
2022/01/14 01:39:18;;;;;;;61.58;32.85;;;;;;;;;;5076464;28;20060;-74
2022/01/14 01:41:45;;;;;;;59.08;29.90;;;;;;;;;;5087842;28;20058;-74
2022/01/14 01:44:12;;;;;;;64.40;32.88;;;;;;;;;;5086581;28;20040;-74
2022/01/14 01:46:40;;;;;;;57.88;32.15;;;;;;;;;;5089123;28;20024;-74
2022/01/14 01:49:07;;;;;;;66.88;35.25;;;;;;;;;;5076468;28;20036;-74
2022/01/14 01:51:33;;;;;;;62.88;32.25;;;;;;;;;;5088750;28;20027;-74
2022/01/14 01:53:59;;;;;;;59.70;29.88;;;;;;;;;;5092305;28;20405;-74
2022/01/14 01:56:25;;;;;;;60.88;29.50;;;;;;;;;;5093231;28;20065;-74
2022/01/14 01:58:51;;;;;;;62.55;31.70;;;;;;;;;;5090327;28;20158;-74
2022/01/14 02:01:17;;;;;;;62.00;27.88;;;;;;;;;;5088816;28;20530;-74
2022/01/14 02:03:43;;;;;;;56.78;28.73;;;;;;;;;;5080259;28;20036;-74
2022/01/14 02:06:09;;;;;;;54.78;29.98;;;;;;;;;;5068606;28;20072;-74
2022/01/14 02:08:35;;;;;;;54.35;25.80;;;;;;;;;;5090787;28;20051;-74
2022/01/14 02:11:01;;;;;;;55.30;28.85;;;;;;;;;;5093342;28;20024;-73
2022/01/14 02:13:30;;;;;;;59.35;31.27;;;;;;;;;;5078075;28;20238;-73
2022/01/14 02:16:30;;;;;;;52.45;25.52;;;;;;;;;;5087215;28;20024;-74
2022/01/14 02:19:14;;;;;;;51.78;26.83;;;;;;;;;;5087953;28;20051;-73
2022/01/14 02:22:26;;;;;;;50.05;25.58;;;;;;;;;;5082788;28;20031;-74
2022/01/14 02:25:14;;;;;;;52.45;29.50;;;;;;;;;;5061864;28;20044;-73
2022/01/14 02:27:19;;;;;;;40.30;22.10;;;;;;;;;;5068179;28;20028;-73
2022/01/14 02:29:45;;;;;;;54.70;28.15;;;;;;;;;;5084632;28;20170;-74
2022/01/14 02:32:11;;;;;;;43.22;24.38;;;;;;;;;;5092279;28;20024;-74
2022/01/14 02:34:37;;;;;;;43.83;23.25;;;;;;;;;;5083092;28;20067;-74
2022/01/14 02:37:04;;;;;;;42.28;23.30;;;;;;;;;;5083016;28;20139;-74
2022/01/14 02:39:30;;;;;;;37.10;20.52;;;;;;;;;;5091960;28;20109;-73
2022/01/14 02:41:56;;;;;;;34.45;20.20;;;;;;;;;;5092485;28;20489;-73
2022/01/14 02:44:25;;;;;;;36.65;18.90;;;;;;;;;;5086850;28;20097;-73
2022/01/14 02:47:03;;;;;;;34.35;18.90;;;;;;;;;;5085535;28;20020;-73
2022/01/14 02:49:31;;;;;;;33.63;19.30;;;;;;;;;;5087504;28;20140;-74
2022/01/14 02:51:58;;;;;;;33.85;18.05;;;;;;;;;;5075279;28;20024;-74
2022/01/14 02:54:31;;;;;;;34.97;18.65;;;;;;;;;;5085144;28;20028;-74
2022/01/14 02:56:58;;;;;;;38.05;20.23;;;;;;;;;;5078113;28;20025;-74
2022/01/14 02:59:26;;;;;;;37.50;20.77;;;;;;;;;;5091407;28;20086;-74
2022/01/14 03:01:52;;;;;;;38.70;21.77;;;;;;;;;;5072520;28;20028;-74
2022/01/14 03:04:20;;;;;;;38.28;19.73;;;;;;;;;;5084962;28;20853;-74
2022/01/14 03:06:47;;;;;;;40.40;22.50;;;;;;;;;;5089924;28;20035;-73
2022/01/14 03:09:13;;;;;;;42.47;22.00;;;;;;;;;;5089843;28;20047;-73
2022/01/14 03:11:49;;;;;;;49.22;23.58;;;;;;;;;;5091742;28;20111;-74
2022/01/14 03:14:21;;;;;;;44.38;23.52;;;;;;;;;;5086222;28;20108;-74
2022/01/14 03:16:48;;;;;;;42.28;22.00;;;;;;;;;;5091221;28;20020;-73
2022/01/14 03:19:20;;;;;;;48.22;27.55;;;;;;;;;;5090840;28;20075;-74
2022/01/14 03:21:49;;;;;;;43.47;25.88;;;;;;;;;;5076576;28;20021;-74
2022/01/14 03:25:35;;;;;;;45.95;26.08;;;;;;;;;;5079852;28;20036;-74
2022/01/14 03:27:07;;;;;;;46.58;24.75;;;;;;;;;;5071402;28;20024;-74
2022/01/14 03:29:33;;;;;;;40.50;21.90;;;;;;;;;;5078326;28;20387;-74
2022/01/14 03:32:00;;;;;;;43.22;22.70;;;;;;;;;;5071321;28;20034;-74
2022/01/14 03:34:26;;;;;;;43.70;23.38;;;;;;;;;;5085027;28;20040;-74
2022/01/14 03:36:52;;;;;;;42.50;22.58;;;;;;;;;;5091459;28;20021;-74
2022/01/14 03:39:18;;;;;;;48.60;23.05;;;;;;;;;;5090609;28;20060;-74
2022/01/14 03:41:45;;;;;;;47.35;26.75;;;;;;;;;;5091452;28;20024;-74
2022/01/14 03:44:12;;;;;;;43.42;24.92;;;;;;;;;;5077357;28;20040;-74
2022/01/14 03:46:38;;;;;;;56.95;28.55;;;;;;;;;;5070834;28;20024;-74
2022/01/14 03:49:04;;;;;;;39.80;22.10;;;;;;;;;;5072142;28;20047;-74
2022/01/14 03:51:30;;;;;;;44.33;24.25;;;;;;;;;;5079153;28;20086;-74
2022/01/14 03:53:56;;;;;;;41.97;23.23;;;;;;;;;;5075382;28;20435;-74
2022/01/14 03:56:23;;;;;;;49.75;25.80;;;;;;;;;;5093655;28;20020;-74
2022/01/14 03:58:49;;;;;;;44.05;27.10;;;;;;;;;;5081305;28;20043;-74
2022/01/14 04:01:15;;;;;;;40.83;23.23;;;;;;;;;;5079751;28;20146;-74
2022/01/14 04:03:42;;;;;;;45.35;25.17;;;;;;;;;;5078420;28;20086;-74
2022/01/14 04:06:10;;;;;;;47.40;25.30;;;;;;;;;;5090463;28;20039;-74
2022/01/14 04:08:37;;;;;;;48.70;25.40;;;;;;;;;;5090306;28;20036;-74
2022/01/14 04:11:04;;;;;;;39.45;23.02;;;;;;;;;;5089925;28;20028;-73
2022/01/14 04:16:02;;;;;;;44.67;23.65;;;;;;;;;;5090939;28;20024;-74
2022/01/14 04:18:28;;;;;;;53.75;26.30;;;;;;;;;;5090449;28;20823;-74
2022/01/14 04:20:54;;;;;;;49.95;26.50;;;;;;;;;;5089578;28;20020;-74
2022/01/14 04:23:22;;;;;;;55.60;26.83;;;;;;;;;;5089912;28;20043;-73
2022/01/14 04:25:51;;;;;;;49.40;26.15;;;;;;;;;;5090666;28;20047;-74
2022/01/14 04:28:18;;;;;;;41.75;22.77;;;;;;;;;;5090999;28;20035;-74
2022/01/14 04:30:44;;;;;;;44.53;23.50;;;;;;;;;;5083700;28;20469;-74
2022/01/14 04:33:10;;;;;;;47.30;24.38;;;;;;;;;;5090056;28;20480;-74
2022/01/14 04:35:36;;;;;;;49.17;26.08;;;;;;;;;;5089337;28;20028;-74
2022/01/14 04:38:02;;;;;;;116.43;66.15;;;;;;;;;;5090025;28;20040;-74
2022/01/14 04:40:28;;;;;;;82.00;48.85;;;;;;;;;;5090139;28;20036;-74
2022/01/14 04:42:55;;;;;;;82.85;47.70;;;;;;;;;;5069638;28;20037;-74
2022/01/14 04:48:07;;;;;;;55.47;32.42;;;;;;;;;;5087729;28;20055;-74
2022/01/14 04:50:33;;;;;;;63.30;33.92;;;;;;;;;;5088141;28;20028;-74
2022/01/14 04:53:00;;;;;;;62.20;33.17;;;;;;;;;;5075131;28;20040;-74
2022/01/14 04:55:26;;;;;;;56.58;30.10;;;;;;;;;;5072598;28;20696;-74
2022/01/14 04:57:53;;;;;;;48.78;25.85;;;;;;;;;;5089422;28;20036;-74
2022/01/14 05:00:21;;;;;;;45.53;23.35;;;;;;;;;;5087051;28;20024;-74
2022/01/14 05:02:47;;;;;;;44.42;23.02;;;;;;;;;;5074159;28;20028;-74
2022/01/14 05:05:17;;;;;;;44.90;23.70;;;;;;;;;;5089677;28;20024;-73
2022/01/14 05:07:45;;;;;;;42.90;21.90;;;;;;;;;;5085942;28;20429;-74
2022/01/14 05:12:56;;;;;;;43.65;23.85;;;;;;;;;;5069066;28;20151;-74
2022/01/14 05:15:22;;;;;;;40.47;23.63;;;;;;;;;;5069118;28;20025;-74
2022/01/14 05:17:49;;;;;;;42.72;22.15;;;;;;;;;;5071098;28;20137;-74
2022/01/14 05:20:16;;;;;;;42.72;21.33;;;;;;;;;;5072631;28;20384;-74
2022/01/14 05:22:42;;;;;;;41.80;22.08;;;;;;;;;;5068697;28;20154;-74
2022/01/14 05:25:09;;;;;;;46.05;24.80;;;;;;;;;;5074999;28;20378;-74
2022/01/14 05:27:36;;;;;;;38.17;23.13;;;;;;;;;;5069065;28;20039;-74
2022/01/14 05:30:03;;;;;;;41.28;24.52;;;;;;;;;;5080612;28;20089;-74
2022/01/14 05:32:29;;;;;;;48.00;24.75;;;;;;;;;;5069169;28;20029;-74
2022/01/14 05:34:55;;;;;;;36.78;21.73;;;;;;;;;;5068863;28;20033;-74
2022/01/14 05:37:21;;;;;;;42.42;23.75;;;;;;;;;;5084445;28;20089;-74
2022/01/14 05:39:47;;;;;;;44.80;22.50;;;;;;;;;;5088903;28;20075;-74
2022/01/14 05:42:13;;;;;;;40.63;23.13;;;;;;;;;;5088462;28;20066;-74
2022/01/14 05:44:39;;;;;;;50.67;24.20;;;;;;;;;;5089053;28;20051;-74
2022/01/14 05:47:06;;;;;;;39.53;22.00;;;;;;;;;;5088403;28;20153;-73
2022/01/14 05:49:32;;;;;;;45.42;24.20;;;;;;;;;;5089353;28;20047;-74
2022/01/14 05:51:58;;;;;;;38.42;23.67;;;;;;;;;;5088338;28;20036;-74
2022/01/14 05:54:24;;;;;;;42.38;22.17;;;;;;;;;;5089802;28;20029;-74
2022/01/14 05:56:50;;;;;;;38.33;21.00;;;;;;;;;;5088623;28;20041;-73
2022/01/14 05:59:16;;;;;;;45.92;22.77;;;;;;;;;;5088219;28;20109;-72
2022/01/14 06:01:43;;;;;;;40.10;22.40;;;;;;;;;;5076401;28;20020;-73
2022/01/14 06:04:09;;;;;;;44.17;24.58;;;;;;;;;;5079654;28;20048;-73
2022/01/14 06:06:35;;;;;;;50.10;24.40;;;;;;;;;;5082496;28;20059;-73
2022/01/14 06:09:02;;;;;;;45.00;24.60;;;;;;;;;;5089078;28;20124;-73
2022/01/14 06:11:28;;;;;;;50.50;28.13;;;;;;;;;;5088153;28;20020;-73
2022/01/14 06:13:55;;;;;;;46.13;26.05;;;;;;;;;;5071478;28;20036;-73
2022/01/14 06:16:21;;;;;;;50.63;28.02;;;;;;;;;;5094667;28;20051;-73
2022/01/14 06:18:47;;;;;;;50.65;27.27;;;;;;;;;;5088259;28;20036;-73
2022/01/14 06:21:13;;;;;;;47.45;24.90;;;;;;;;;;5081333;28;20024;-73
2022/01/14 06:23:39;;;;;;;45.58;25.60;;;;;;;;;;5075261;28;20493;-73
2022/01/14 06:26:05;;;;;;;51.17;29.85;;;;;;;;;;5076082;28;20043;-73
2022/01/14 06:28:31;;;;;;;46.60;23.90;;;;;;;;;;5086376;28;20039;-73
2022/01/14 06:30:58;;;;;;;46.83;25.27;;;;;;;;;;5087386;28;20042;-73
2022/01/14 06:33:23;;;;;;;49.92;26.45;;;;;;;;;;5074888;28;20131;-73
2022/01/14 06:35:50;;;;;;;48.55;26.00;;;;;;;;;;5086062;28;20115;-73
2022/01/14 06:38:16;;;;;;;45.92;23.95;;;;;;;;;;5063052;28;20102;-73
2022/01/14 06:40:42;;;;;;;50.47;27.35;;;;;;;;;;5087851;28;20574;-74
2022/01/14 06:43:08;;;;;;;59.97;29.38;;;;;;;;;;5080860;28;20041;-73
2022/01/14 06:45:34;;;;;;;59.08;31.55;;;;;;;;;;5083519;28;20095;-73
2022/01/14 06:48:00;;;;;;;55.38;27.58;;;;;;;;;;5081130;28;21056;-73
2022/01/14 06:50:27;;;;;;;58.25;30.52;;;;;;;;;;5080214;28;20051;-73
2022/01/14 06:52:53;;;;;;;59.53;29.85;;;;;;;;;;5087530;28;20086;-73
2022/01/14 06:55:19;;;;;;;52.33;28.98;;;;;;;;;;5085304;28;20086;-73
2022/01/14 06:57:45;;;;;;;55.90;29.13;;;;;;;;;;5079957;28;20032;-74
2022/01/14 07:00:13;;;;;;;50.10;28.00;;;;;;;;;;5084624;28;20053;-74
2022/01/14 07:02:39;;;;;;;52.95;28.30;;;;;;;;;;5089260;28;20040;-73
2022/01/14 07:05:05;;;;;;;57.03;28.85;;;;;;;;;;5087639;28;20104;-73
2022/01/14 07:07:32;;;;;;;51.17;28.67;;;;;;;;;;5078684;28;20028;-73
2022/01/14 07:09:58;;;;;;;56.40;28.77;;;;;;;;;;5084330;28;20030;-73
2022/01/14 07:12:25;;;;;;;51.85;30.50;;;;;;;;;;5083956;28;20038;-73
2022/01/14 07:14:51;;;;;;;57.67;30.48;;;;;;;;;;5087453;28;20043;-73
2022/01/14 07:17:17;;;;;;;55.40;29.92;;;;;;;;;;5090405;28;20107;-73
2022/01/14 07:19:43;;;;;;;47.10;26.88;;;;;;;;;;5085298;28;20878;-73
2022/01/14 07:22:09;;;;;;;53.55;26.92;;;;;;;;;;5090226;28;20039;-72
2022/01/14 07:24:36;;;;;;;51.13;28.45;;;;;;;;;;5085710;28;20028;-73
2022/01/14 07:27:03;;;;;;;53.97;29.58;;;;;;;;;;5073039;28;20451;-73
2022/01/14 07:29:29;;;;;;;48.95;27.83;;;;;;;;;;5086009;28;20340;-73
2022/01/14 07:31:55;;;;;;;60.28;29.98;;;;;;;;;;5090237;28;20032;-73
2022/01/14 07:34:21;;;;;;;69.03;35.67;;;;;;;;;;5082247;28;20028;-73
2022/01/14 07:36:47;;;;;;;65.28;33.20;;;;;;;;;;5080834;28;20063;-74
2022/01/14 07:39:13;;;;;;;65.65;34.80;;;;;;;;;;5081403;28;20508;-74
2022/01/14 07:41:39;;;;;;;65.72;34.67;;;;;;;;;;5079351;28;20487;-74
2022/01/14 07:44:05;;;;;;;72.15;37.75;;;;;;;;;;5083277;28;20030;-74
2022/01/14 07:46:31;;;;;;;65.72;34.45;;;;;;;;;;5081527;28;20107;-73
2022/01/14 07:48:58;;;;;;;75.28;39.10;;;;;;;;;;5079306;28;20060;-73
2022/01/14 07:51:24;;;;;;;73.22;38.47;;;;;;;;;;5079981;28;20606;-74
2022/01/14 07:53:50;;;;;;;83.90;43.53;;;;;;;;;;5084148;28;20028;-74
2022/01/14 07:56:16;;;;;;;81.70;40.22;;;;;;;;;;5081292;28;20043;-73
2022/01/14 07:58:42;;;;;;;73.25;38.33;;;;;;;;;;5083114;28;20036;-73
2022/01/14 08:01:09;;;;;;;74.07;38.67;;;;;;;;;;5085198;28;20028;-73
2022/01/14 08:03:35;;;;;;;73.25;40.08;;;;;;;;;;5080004;28;20390;-73
2022/01/14 08:06:03;;;;;;;91.28;46.35;;;;;;;;;;5081634;28;20031;-73
2022/01/14 08:08:29;;;;;;;99.63;51.00;;;;;;;;;;5076217;28;20032;-74
2022/01/14 08:10:56;;;;;;;126.20;62.28;;;;;;;;;;5086412;28;20036;-74
2022/01/14 08:13:22;;;;;;;115.45;58.25;;;;;;;;;;5079743;28;20031;-74
2022/01/14 08:15:48;;;;;;;115.68;55.47;;;;;;;;;;5080887;28;20024;-74
2022/01/14 08:18:14;;;;;;;96.65;49.75;;;;;;;;;;5079224;28;20043;-74
2022/01/14 08:20:40;;;;;;;89.63;44.35;;;;;;;;;;5081837;28;20039;-73
2022/01/14 08:23:06;;;;;;;82.55;44.70;;;;;;;;;;5077405;28;20036;-73
2022/01/14 08:25:32;;;;;;;86.43;46.20;;;;;;;;;;5081917;28;20035;-73
2022/01/14 08:27:58;;;;;;;85.70;44.78;;;;;;;;;;5086629;28;20032;-74
2022/01/14 08:30:24;;;;;;;87.72;48.03;;;;;;;;;;5079361;28;20028;-74
2022/01/14 08:32:50;;;;;;;87.00;46.95;;;;;;;;;;5077847;28;20493;-74
2022/01/14 08:35:17;;;;;;;93.80;46.88;;;;;;;;;;5085334;28;20051;-73
2022/01/14 08:37:43;;;;;;;84.07;45.35;;;;;;;;;;5084684;28;20822;-73
2022/01/14 08:40:10;;;;;;;78.57;42.92;;;;;;;;;;5081102;28;20555;-73
2022/01/14 08:42:36;;;;;;;81.15;45.17;;;;;;;;;;5085653;28;20054;-73
2022/01/14 08:45:03;;;;;;;84.70;42.03;;;;;;;;;;5086126;28;20031;-73
2022/01/14 08:47:30;;;;;;;92.15;48.40;;;;;;;;;;5084402;28;20032;-73
2022/01/14 08:49:56;;;;;;;79.35;43.28;;;;;;;;;;5083101;28;20028;-73
2022/01/14 08:52:22;;;;;;;84.55;44.38;;;;;;;;;;5084766;28;20040;-73
2022/01/14 08:54:48;;;;;;;77.43;43.97;;;;;;;;;;5082352;28;20825;-73
2022/01/14 08:57:14;;;;;;;80.55;44.85;;;;;;;;;;5090273;28;20062;-72
2022/01/14 08:59:41;;;;;;;94.07;46.75;;;;;;;;;;5083033;28;20382;-73
2022/01/14 09:02:07;;;;;;;93.78;48.90;;;;;;;;;;5083777;28;20035;-73
2022/01/14 09:04:34;;;;;;;91.20;47.97;;;;;;;;;;5086023;28;20032;-73
2022/01/14 09:07:00;;;;;;;92.28;51.42;;;;;;;;;;5088566;28;20082;-74
2022/01/14 09:09:26;;;;;;;87.25;50.35;;;;;;;;;;5067265;28;20047;-73
2022/01/14 09:11:54;;;;;;;90.13;51.30;;;;;;;;;;5087008;28;20040;-74
2022/01/14 09:14:21;;;;;;;81.18;45.92;;;;;;;;;;5081513;28;20383;-74
2022/01/14 09:16:47;;;;;;;86.38;46.75;;;;;;;;;;5082314;28;20028;-74
2022/01/14 09:19:13;;;;;;;78.22;42.17;;;;;;;;;;5084616;28;20118;-74
2022/01/14 09:21:39;;;;;;;68.97;40.83;;;;;;;;;;5085547;28;20040;-74
2022/01/14 09:24:08;;;;;;;69.80;38.53;;;;;;;;;;5083755;28;20115;-74
2022/01/14 09:26:35;;;;;;;64.93;34.63;;;;;;;;;;5084152;28;20024;-74
2022/01/14 09:29:02;;;;;;;66.05;39.25;;;;;;;;;;5080022;28;20032;-74
2022/01/14 09:31:28;;;;;;;62.72;38.72;;;;;;;;;;5083731;28;20846;-74
2022/01/14 09:33:54;;;;;;;70.45;41.20;;;;;;;;;;5084898;28;20032;-74
2022/01/14 09:36:20;;;;;;;65.88;40.45;;;;;;;;;;5084813;28;20115;-74
2022/01/14 09:38:46;;;;;;;67.40;39.60;;;;;;;;;;5082640;28;20052;-74
2022/01/14 09:41:13;;;;;;;74.45;42.30;;;;;;;;;;5087162;28;20034;-74
2022/01/14 09:43:39;;;;;;;70.43;43.05;;;;;;;;;;5079137;28;20047;-74
2022/01/14 09:46:06;;;;;;;75.60;45.30;;;;;;;;;;5086868;28;20042;-74
2022/01/14 09:48:33;;;;;;;71.53;42.80;;;;;;;;;;5087432;28;20119;-74
2022/01/14 09:51:00;;;;;;;74.35;45.22;;;;;;;;;;5083266;28;20040;-74
2022/01/14 09:53:27;;;;;;;79.32;45.70;;;;;;;;;;5081796;28;20607;-74
2022/01/14 09:55:53;;;;;;;82.10;44.40;;;;;;;;;;5082982;28;20028;-74
2022/01/14 09:58:19;;;;;;;83.72;47.63;;;;;;;;;;5092581;28;20040;-74
2022/01/14 10:00:45;;;;;;;77.10;44.55;;;;;;;;;;5084895;28;20040;-74
2022/01/14 10:03:24;;;;;;;73.00;43.10;;;;;;;;;;5082877;28;20043;-74
2022/01/14 10:05:55;;;;;;;76.78;42.10;;;;;;;;;;5086438;28;20032;-74
2022/01/14 10:08:23;;;;;;;72.03;40.97;;;;;;;;;;5082205;28;20070;-74
2022/01/14 10:10:58;;;;;;;64.53;36.17;;;;;;;;;;5085613;28;20039;-74
2022/01/14 10:13:29;;;;;;;61.63;36.58;;;;;;;;;;5082547;28;20028;-74
2022/01/14 10:16:03;;;;;;;56.92;33.42;;;;;;;;;;5088930;28;20097;-74
2022/01/14 10:18:30;;;;;;;58.33;35.25;;;;;;;;;;5088329;28;20061;-73
2022/01/14 10:21:01;;;;;;;57.90;35.60;;;;;;;;;;5086679;28;20048;-74
2022/01/14 10:23:39;;;;;;;71.55;43.13;;;;;;;;;;5085048;28;20053;-73
2022/01/14 10:26:05;;;;;;;64.15;37.63;;;;;;;;;;5084680;28;20043;-74
2022/01/14 10:28:31;;;;;;;59.10;34.67;;;;;;;;;;5087510;28;20036;-74
2022/01/14 10:30:57;;;;;;;64.82;33.63;;;;;;;;;;5085529;28;20033;-74
2022/01/14 10:33:27;;;;;;;57.70;34.72;;;;;;;;;;5082938;28;20860;-74
2022/01/14 10:35:53;;;;;;;48.42;31.02;;;;;;;;;;5087159;28;20028;-74
2022/01/14 10:38:20;;;;;;;55.60;34.28;;;;;;;;;;5083600;28;20059;-74
2022/01/14 10:40:47;;;;;;;61.63;37.45;;;;;;;;;;5086339;28;20044;-73
2022/01/14 10:43:15;;;;;;;57.90;36.53;;;;;;;;;;5081869;28;20078;-74
2022/01/14 10:45:42;;;;;;;51.67;35.58;;;;;;;;;;5088805;28;20028;-74
2022/01/14 10:48:19;;;;;;;51.65;33.97;;;;;;;;;;5086220;28;20032;-74
2022/01/14 10:50:45;;;;;;;54.22;34.55;;;;;;;;;;5079728;28;20028;-74
2022/01/14 10:53:16;;;;;;;57.13;37.67;;;;;;;;;;5089158;28;20024;-74
2022/01/14 10:55:46;;;;;;;51.05;34.33;;;;;;;;;;5090883;28;20024;-74
2022/01/14 10:58:39;;;;;;;47.97;31.25;;;;;;;;;;5087191;28;20057;-74
2022/01/14 11:01:18;;;;;;;46.45;27.08;;;;;;;;;;5079759;28;20608;-73
2022/01/14 11:03:48;;;;;;;57.03;35.10;;;;;;;;;;5087893;28;20036;-74
2022/01/14 11:06:24;;;;;;;61.38;37.70;;;;;;;;;;5088771;28;20039;-72
2022/01/14 11:09:00;;;;;;;44.45;23.25;;;;;;;;;;5087966;28;20035;-71
2022/01/14 11:11:28;;;;;;;40.00;26.83;;;;;;;;;;5088974;28;20484;-71
2022/01/14 11:13:54;;;;;;;40.67;22.63;;;;;;;;;;5086138;28;20135;-71
2022/01/14 11:16:20;;;;;;;46.08;26.73;;;;;;;;;;5080590;28;20028;-71
2022/01/14 11:18:46;;;;;;;43.45;24.83;;;;;;;;;;5089149;28;20660;-72
2022/01/14 11:23:57;;;;;;;39.42;21.63;;;;;;;;;;5082147;28;20111;-71
2022/01/14 11:26:28;;;;;;;32.38;20.15;;;;;;;;;;5082155;28;20567;-71
2022/01/14 11:28:55;;;;;;;37.95;23.55;;;;;;;;;;5084514;28;20101;-71
2022/01/14 11:31:32;;;;;;;29.58;18.10;;;;;;;;;;5087310;28;20432;-71
2022/01/14 11:33:59;;;;;;;40.38;30.48;;;;;;;;;;5084059;28;20028;-71
2022/01/14 11:36:26;;;;;;;31.95;21.30;;;;;;;;;;5086092;28;20024;-71
2022/01/14 11:38:52;;;;;;;27.00;18.30;;;;;;;;;;5085798;28;20098;-71
2022/01/14 11:41:20;;;;;;;33.95;20.63;;;;;;;;;;5091467;28;20027;-72
2022/01/14 11:43:48;;;;;;;36.67;22.40;;;;;;;;;;5084240;28;20040;-72
2022/01/14 11:46:16;;;;;;;28.52;17.58;;;;;;;;;;5085039;28;20061;-71
2022/01/14 11:48:48;;;;;;;24.73;15.55;;;;;;;;;;5088145;28;20067;-71
2022/01/14 11:51:16;;;;;;;26.08;16.15;;;;;;;;;;5084322;28;20028;-71
2022/01/14 11:53:46;;;;;;;37.13;25.88;;;;;;;;;;5083106;28;20119;-71
2022/01/14 11:56:34;;;;;;;41.42;26.60;;;;;;;;;;5080790;28;20102;-72
2022/01/14 11:59:18;;;;;;;37.70;24.85;;;;;;;;;;5077555;28;20371;-71
2022/01/14 12:01:45;;;;;;;38.25;23.67;;;;;;;;;;5073820;28;20028;-72
2022/01/14 12:04:11;;;;;;;42.22;25.83;;;;;;;;;;5081268;28;20031;-72
2022/01/14 12:06:54;;;;;;;44.47;28.17;;;;;;;;;;5079416;28;20725;-71
2022/01/14 12:09:23;;;;;;;34.28;24.27;;;;;;;;;;5075351;28;20035;-72
2022/01/14 12:12:08;;;;;;;34.35;24.00;;;;;;;;;;5081447;28;20031;-71
2022/01/14 12:14:42;;;;;;;29.65;20.02;;;;;;;;;;5082273;28;20069;-72
2022/01/14 12:17:13;;;;;;;27.50;16.73;;;;;;;;;;5086847;28;20757;-72
2022/01/14 12:19:39;;;;;;;23.60;16.17;;;;;;;;;;5086674;28;20115;-71
2022/01/14 12:22:06;;;;;;;35.53;18.65;;;;;;;;;;5084679;28;20082;-71
2022/01/14 12:24:33;;;;;;;36.92;17.58;;;;;;;;;;5080090;28;20036;-71
2022/01/14 12:27:08;;;;;;;30.35;16.20;;;;;;;;;;5081880;28;20062;-72
2022/01/14 12:29:41;;;;;;;22.40;14.13;;;;;;;;;;5076898;28;20049;-71
2022/01/14 12:32:10;;;;;;;29.60;16.05;;;;;;;;;;5078242;28;20047;-71
2022/01/14 12:34:37;;;;;;;29.55;17.73;;;;;;;;;;5082767;28;20032;-71
2022/01/14 12:37:04;;;;;;;29.60;18.80;;;;;;;;;;5080995;28;20852;-71
2022/01/14 12:39:31;;;;;;;28.83;18.45;;;;;;;;;;5084089;28;20100;-72
2022/01/14 12:41:58;;;;;;;26.73;14.52;;;;;;;;;;5086886;28;20036;-72
2022/01/14 12:44:24;;;;;;;26.23;15.38;;;;;;;;;;5084325;28;20724;-71
2022/01/14 12:47:00;;;;;;;23.10;14.52;;;;;;;;;;5079145;28;20036;-71
2022/01/14 12:49:36;;;;;;;22.25;13.00;;;;;;;;;;5080325;28;20062;-71
2022/01/14 12:52:03;;;;;;;20.30;10.98;;;;;;;;;;5082578;28;20047;-71
2022/01/14 12:54:31;;;;;;;20.98;10.48;;;;;;;;;;5082555;28;20040;-72
2022/01/14 12:57:01;;;;;;;15.48;8.65;;;;;;;;;;5070889;28;20043;-72
2022/01/14 12:59:27;;;;;;;14.90;9.18;;;;;;;;;;5072926;28;20032;-73
2022/01/14 13:01:54;;;;;;;12.20;7.15;;;;;;;;;;5075228;28;20033;-71
2022/01/14 13:04:21;;;;;;;13.73;7.85;;;;;;;;;;5077844;28;20028;-72
2022/01/14 13:06:47;;;;;;;15.85;10.15;;;;;;;;;;5078840;28;20697;-71
2022/01/14 13:09:18;;;;;;;16.45;11.00;;;;;;;;;;5085487;28;20060;-71
2022/01/14 13:11:47;;;;;;;23.00;14.35;;;;;;;;;;5083634;28;20028;-71
2022/01/14 13:14:18;;;;;;;17.80;10.63;;;;;;;;;;5084697;28;20028;-72
2022/01/14 13:16:48;;;;;;;23.00;13.15;;;;;;;;;;5082683;28;20124;-72
2022/01/14 13:19:21;;;;;;;24.73;13.48;;;;;;;;;;5082281;28;20036;-71
2022/01/14 13:21:47;;;;;;;22.27;12.68;;;;;;;;;;5074864;28;20128;-72
2022/01/14 13:24:19;;;;;;;23.45;13.57;;;;;;;;;;5071766;28;20092;-72
2022/01/14 13:26:56;;;;;;;25.83;14.02;;;;;;;;;;5070501;28;20467;-72
2022/01/14 13:29:22;;;;;;;21.67;10.88;;;;;;;;;;5082971;28;20028;-71
2022/01/14 13:31:48;;;;;;;17.95;10.27;;;;;;;;;;5074729;28;20828;-72
2022/01/14 13:34:14;;;;;;;18.73;10.10;;;;;;;;;;5077844;28;20738;-72
2022/01/14 13:36:41;;;;;;;15.75;8.98;;;;;;;;;;5081857;28;20147;-72
2022/01/14 13:39:08;;;;;;;13.05;7.78;;;;;;;;;;5076720;28;20118;-72
2022/01/14 13:41:34;;;;;;;10.77;5.72;;;;;;;;;;5082690;28;20032;-71
2022/01/14 13:44:14;;;;;;;13.30;6.47;;;;;;;;;;5079367;28;20040;-72
2022/01/14 13:46:55;;;;;;;10.80;6.38;;;;;;;;;;5085058;28;20046;-72
2022/01/14 13:49:21;;;;;;;10.57;6.15;;;;;;;;;;5084378;28;20036;-72
2022/01/14 13:52:01;;;;;;;9.93;5.90;;;;;;;;;;5090690;28;20026;-72
2022/01/14 13:54:27;;;;;;;16.30;8.55;;;;;;;;;;5091843;28;20028;-72
2022/01/14 13:56:53;;;;;;;33.78;18.70;;;;;;;;;;5086053;28;20036;-71
2022/01/14 13:59:22;;;;;;;32.20;19.33;;;;;;;;;;5091922;28;20750;-72
2022/01/14 14:01:57;;;;;;;38.13;23.13;;;;;;;;;;5088260;28;21666;-71
2022/01/14 14:04:28;;;;;;;33.13;20.05;;;;;;;;;;5089020;28;20028;-72
2022/01/14 14:07:06;;;;;;;31.38;17.23;;;;;;;;;;5086688;28;20479;-72
2022/01/14 14:09:41;;;;;;;27.23;15.65;;;;;;;;;;5088396;28;20032;-71
2022/01/14 14:17:38;;;;;;;19.33;10.75;;;;;;;;;;5088880;28;20767;-72
2022/01/14 14:20:06;;;;;;;21.55;13.30;;;;;;;;;;5087693;28;20053;-71
2022/01/14 14:22:34;;;;;;;17.38;9.45;;;;;;;;;;5084701;28;20077;-72
2022/01/14 14:25:02;;;;;;;15.02;9.00;;;;;;;;;;5086593;28;20032;-72
2022/01/14 14:27:29;;;;;;;15.20;9.05;;;;;;;;;;5088046;28;20025;-72
2022/01/14 14:29:56;;;;;;;12.95;7.93;;;;;;;;;;5086902;28;20031;-72
2022/01/14 14:32:29;;;;;;;15.02;7.43;;;;;;;;;;5090067;28;20028;-72
2022/01/14 14:34:56;;;;;;;14.95;8.82;;;;;;;;;;5090154;28;20062;-72
2022/01/14 14:37:22;;;;;;;15.68;8.68;;;;;;;;;;5087295;28;20569;-72
2022/01/14 14:39:49;;;;;;;15.32;8.50;;;;;;;;;;5089634;28;20044;-71
2022/01/14 14:42:15;;;;;;;14.75;8.85;;;;;;;;;;5090898;28;20036;-73
2022/01/14 14:44:41;;;;;;;13.50;7.45;;;;;;;;;;5086215;28;20043;-72
2022/01/14 14:47:07;;;;;;;13.13;8.40;;;;;;;;;;5084259;28;20060;-72
2022/01/14 14:49:35;;;;;;;15.38;8.30;;;;;;;;;;5083730;28;20097;-72
2022/01/14 14:52:01;;;;;;;15.27;9.93;;;;;;;;;;5084687;28;20039;-72